Flight Track Log - Related Links

Times and Time Zones

All times are in EDT time to prevent confusion due to time zone crossing. See the DAL1103 flight status page for this flight to view local times or setup timezone preferences in your user account.


Time Position Orientation Groundspeed Altitude Reporting Facility
EDT Latitude Longitude Course Direction KTS MPH feet Rate Location/Type
Tue 07:44:41 AM 43.6500 -79.6167 202° Southwest 70 81 2,300  Level Toronto Center
Tue 07:45:41 AM 43.6000 -79.6500 206° Southwest 240 276 4,600 2,598 Climbing Toronto Center
Tue 07:46:18 AM 43.5667 -79.7000 227° Southwest 260 299 6,500 3,402 Climbing Toronto Center
Tue 07:47:00 AM 43.3471 -79.8139 185° South  Level Estimated
Tue 07:47:18 AM 43.5000 -79.7500 209° Southwest 270 311 10,100  Level Toronto Center
Tue 07:48:00 AM 43.2371 -79.8745 194° South  Level Estimated
Tue 07:48:18 AM 43.4000 -79.7167 166° South 350 403 11,900  Level Toronto Center
Tue 07:49:00 AM 43.1269 -79.9350 200° South  Level Estimated
Tue 07:49:18 AM 43.2833 -79.7000 174° South 410 472 13,900  Level Toronto Center
Tue 07:50:00 AM 43.0263 -79.9900 202° Southwest  Level Estimated
Tue 07:50:18 AM 43.1667 -79.7167 186° South 430 495 16,800  Level Toronto Center
Tue 07:51:18 AM 43.0500 -79.7500 192° South 440 506 19,400 2,350 Climbing Toronto Center
Tue 07:52:18 AM 42.9167 -79.7667 185° South 460 529 21,500 1,800 Climbing Toronto Center
Tue 07:53:18 AM 42.7833 -79.8167 195° South 470 541 23,000 1,450 Climbing Toronto Center
Tue 07:54:18 AM 42.6500 -79.8333 185° South 480 552 24,400 1,800 Climbing Toronto Center
Tue 07:55:18 AM 42.5167 -79.8667 190° South 480 552 26,600 1,300 Climbing Toronto Center
Tue 07:56:18 AM 42.4000 -79.8833 186° South 480 552 27,000 750 Climbing Toronto Center
Tue 07:57:18 AM 42.2667 -79.9000 185° South 480 552 28,100 1,400 Climbing Toronto Center
Tue 07:58:18 AM 42.1333 -79.9333 191° South 470 541 29,800 1,450 Climbing Toronto Center
Tue 07:59:18 AM 42.0000 -79.9667 191° South 470 541 31,000 1,217 Climbing Toronto Center
Tue 08:00:36 AM 41.8461 -80.0117 192° South 474 545 32,600 870 Climbing Cleveland Center
Tue 08:01:36 AM 41.7231 -80.0350 188° South 456 525 33,000 200 Climbing Cleveland Center
Tue 08:02:36 AM 41.6169 -80.0556 188° South 450 518 33,000 50 Level Cleveland Center
Tue 08:03:36 AM 41.4942 -80.0814 189° South 445 512 33,100 500 Climbing Cleveland Center
Tue 08:04:36 AM 41.3753 -80.1072 189° South 445 512 34,000 450 Climbing Cleveland Center
Tue 08:05:36 AM 41.2525 -80.1303 188° South 445 512 34,000 300 Level Cleveland Center
Tue 08:06:36 AM 41.1317 -80.1531 188° South 445 512 34,600 850 Climbing Cleveland Center
Tue 08:07:36 AM 41.0086 -80.1758 188° South 445 512 35,700 700 Climbing Cleveland Center
Tue 08:08:36 AM 40.8878 -80.2014 189° South 445 512 36,000 150 Climbing Cleveland Center
Tue 08:09:36 AM 40.7628 -80.2350 192° South 451 519 36,000  Level Cleveland Center
Tue 08:10:36 AM 40.6442 -80.2767 195° South 451 519 36,000  Level Cleveland Center
Tue 08:11:36 AM 40.5256 -80.3181 195° South 446 513 36,000  Level Cleveland Center
Tue 08:12:36 AM 40.4089 -80.3594 195° South 446 513 36,000  Level Cleveland Center
Tue 08:13:36 AM 40.2775 -80.3981 193° South 441 507 36,000  Level Cleveland Center
Tue 08:14:36 AM 40.1567 -80.4364 194° South 441 507 36,000  Level Cleveland Center
Tue 08:15:36 AM 40.0400 -80.4747 194° South 441 507 36,000  Level Cleveland Center
Tue 08:17:15 AM 39.8439 -80.5375 194° South 442 509 36,000  Level Indianapolis Center
Tue 08:18:17 AM 39.7236 -80.5747 193° South 444 511 36,000  Level Indianapolis Center
Tue 08:19:19 AM 39.6042 -80.6169 195° South 443 510 36,000  Level Indianapolis Center
Tue 08:20:20 AM 39.4853 -80.6564 194° South 440 506 36,000  Level Indianapolis Center
Tue 08:21:22 AM 39.3703 -80.7147 201° Southwest 441 507 36,000  Level Indianapolis Center
Tue 08:22:24 AM 39.2567 -80.7714 201° Southwest 438 504 36,000  Level Indianapolis Center
Tue 08:23:25 AM 39.1447 -80.8314 203° Southwest 435 501 36,000  Level Indianapolis Center
Tue 08:24:27 AM 39.0339 -80.9511 220° Southwest 438 504 36,000  Level Indianapolis Center
Tue 08:25:29 AM 38.9467 -81.0567 223° Southwest 432 497 36,000  Level Indianapolis Center
Tue 08:26:30 AM 38.8600 -81.1647 224° Southwest 432 497 36,000  Level Indianapolis Center
Tue 08:27:32 AM 38.7714 -81.2708 223° Southwest 433 498 36,000  Level Indianapolis Center
Tue 08:28:34 AM 38.6836 -81.3764 223° Southwest 433 498 36,000  Level Indianapolis Center
Tue 08:29:36 AM 38.5958 -81.4817 223° Southwest 433 498 36,000  Level Indianapolis Center
Tue 08:30:37 AM 38.5008 -81.5961 223° Southwest 435 501 36,000  Level Indianapolis Center
Tue 08:31:39 AM 38.4128 -81.7017 223° Southwest 432 497 36,000  Level Indianapolis Center
Tue 08:32:41 AM 38.3156 -81.7925 216° Southwest 432 497 36,000  Level Indianapolis Center
Tue 08:33:42 AM 38.2011 -81.8397 198° South 435 501 36,000  Level Indianapolis Center
Tue 08:34:44 AM 38.0844 -81.8850 197° South 433 498 36,000  Level Indianapolis Center
Tue 08:35:46 AM 37.9481 -81.9433 199° South 435 501 36,000  Level Indianapolis Center
Tue 08:36:48 AM 37.8322 -81.9925 199° South 437 503 36,000  Level Indianapolis Center
Tue 08:37:50 AM 37.7092 -82.0461 199° South 439 505 36,000  Level Indianapolis Center
Tue 08:38:51 AM 37.5922 -82.0958 199° South 441 507 36,000  Level Indianapolis Center
Tue 08:39:53 AM 37.4747 -82.1458 199° South 443 510 36,000  Level Indianapolis Center
Tue 08:40:55 AM 37.3581 -82.1972 199° South 443 510 36,000  Level Indianapolis Center
Tue 08:41:57 AM 37.2419 -82.2481 199° South 440 506 36,000  Level Indianapolis Center
Tue 08:42:59 AM 37.1233 -82.2981 199° South 445 512 36,000  Level Indianapolis Center
Tue 08:44:01 AM 37.0058 -82.3478 199° South 443 510 36,000  Level Indianapolis Center
Tue 08:45:02 AM 36.8683 -82.4064 199° South 443 510 36,000  Level Indianapolis Center
Tue 08:46:04 AM 36.7486 -82.4564 199° South 447 514 36,000  Level Indianapolis Center
Tue 08:47:06 AM 36.6297 -82.5064 199° South 446 513 36,000  Level Indianapolis Center
Tue 08:47:57 AM 36.5228 -82.5508 198° South 448 516 36,000  Level Atlanta Center
Tue 08:48:57 AM 36.4022 -82.5994 198° South 448 516 36,000  Level Atlanta Center
Tue 08:49:57 AM 36.2839 -82.6506 199° South 448 516 36,000 -100 Level Atlanta Center
Tue 08:50:57 AM 36.1678 -82.6986 198° South 448 516 35,800 -500 Descending Atlanta Center
Tue 08:51:57 AM 36.0494 -82.7494 199° South 448 516 35,000 -400 Descending Atlanta Center
Tue 08:52:57 AM 35.9269 -82.7975 198° South 453 521 35,000  Level Atlanta Center
Tue 08:53:57 AM 35.8064 -82.8456 198° South 459 528 35,000  Level Atlanta Center
Tue 08:54:57 AM 35.6878 -82.8958 199° South 459 528 35,000 -400 Level Atlanta Center
Tue 08:55:57 AM 35.5717 -82.9614 205° Southwest 459 528 34,200 -1,300 Descending Atlanta Center
Tue 08:56:57 AM 35.4556 -83.0342 207° Southwest 465 535 32,400 -1,900 Descending Atlanta Center
Tue 08:57:57 AM 35.3392 -83.1019 205° Southwest 465 535 30,400 -2,250 Descending Atlanta Center
Tue 08:58:57 AM 35.2186 -83.1744 206° Southwest 472 543 27,900 -2,050 Descending Atlanta Center
Tue 08:59:57 AM 35.1106 -83.2442 208° Southwest 472 543 26,300 -1,250 Descending Atlanta Center
Tue 09:00:57 AM 34.9983 -83.3061 204° Southwest 472 543 25,400 -850 Descending Atlanta Center
Tue 09:01:57 AM 34.8861 -83.3753 207° Southwest 459 528 24,600 -1,100 Descending Atlanta Center
Tue 09:02:57 AM 34.7778 -83.4394 206° Southwest 448 516 23,200 -1,250 Descending Atlanta Center
Tue 09:03:57 AM 34.6758 -83.5008 206° Southwest 429 494 22,100 -1,450 Descending Atlanta Center
Tue 09:04:57 AM 34.5633 -83.5619 204° Southwest 408 470 20,300 -1,600 Descending Atlanta Center
Tue 09:05:57 AM 34.4636 -83.6206 206° Southwest 403 464 18,900 -1,750 Descending Atlanta Center
Tue 09:06:57 AM 34.3719 -83.6764 207° Southwest 393 452 16,800 -2,250 Descending Atlanta Center
Tue 09:07:57 AM 34.2761 -83.7322 206° Southwest 376 433 14,400 -1,400 Descending Atlanta Center
Tue 09:08:57 AM 34.1967 -83.7800 206° Southwest 370 426 14,000 -200 Descending Atlanta Center
Tue 09:09:57 AM 34.1092 -83.8306 206° Southwest 362 417 14,000 -50 Level Atlanta Center
Tue 09:10:57 AM 34.0281 -83.9058 218° Southwest 357 411 13,900 -470 Descending Atlanta Center
Tue 09:11:52 AM 33.9500 -83.9833 219° Southwest 365 420 13,100 -887 Descending Atlanta TRACON
Tue 09:12:52 AM 33.8667 -84.0500 214° Southwest 362 417 12,200 -611 Descending Atlanta TRACON
Tue 09:13:40 AM 33.7833 -84.1000 207° Southwest 356 410 12,000 -118 Descending Atlanta TRACON
Tue 09:14:34 AM 33.7333 -84.1667 228° Southwest 359 413 12,000  Level Atlanta TRACON
Tue 09:15:34 AM 33.7333 -84.2833 270° West 311 358 12,000 -417 Level Atlanta TRACON
Tue 09:16:29 AM 33.7333 -84.3667 270° West 312 359 11,200 -1,357 Descending Atlanta TRACON
Tue 09:17:29 AM 33.7333 -84.4667 270° West 304 350 9,400 -1,700 Descending Atlanta TRACON
Tue 09:18:29 AM 33.7333 -84.5667 270° West 288 331 7,800 -1,632 Descending Atlanta TRACON
Tue 09:19:23 AM 33.7333 -84.6500 270° West 286 329 6,300 -1,632 Descending Atlanta TRACON
Tue 09:20:23 AM 33.7333 -84.7500 270° West 280 322 4,700 -1,150 Descending Atlanta TRACON
Tue 09:21:23 AM 33.7000 -84.8167 239° Southwest 267 307 4,000 -350 Descending Atlanta TRACON
Tue 09:22:23 AM 33.6500 -84.7833 151° Southeast 225 259 4,000  Level Atlanta TRACON
Tue 09:23:23 AM 33.6500 -84.7000 90° East 220 253 4,000 50 Level Atlanta TRACON
Tue 09:24:23 AM 33.6500 -84.6333 90° East 213 245 4,100 -421 Climbing Atlanta TRACON
Tue 09:25:17 AM 33.6500 -84.5667 90° East 185 213 3,200 -1,000 Descending Atlanta TRACON
Tue 09:26:17 AM 33.6500 -84.5167 90° East 175 201 2,200 -850 Descending Atlanta TRACON
Tue 09:27:17 AM 33.6500 -84.4667 90° East 132 152 1,500 -700 Descending Atlanta TRACON

Login

Don't have an account? Register now (free) for customized features, flight alerts, and more!